Time;durP1;ratioP1;P1;durP2;ratioP2;P2;SDS_P1;SDS_P2;PMS_P1;PMS_P2;Temp;Humidity;BMP_temperature;BMP_pressure;BME280_temperature;BME280_humidity;BME280_pressure;Samples;Min_cycle;Max_cycle;Signal;HPM_P1;HPM_P2
2023/02/02 00:01:27;;;;;;;18.60;2.75;;;4.70;99.90;;;;;;5110871;28;20036;-86
2023/02/02 00:03:54;;;;;;;23.63;3.75;;;4.70;99.90;;;;;;5111079;28;20043;-86
2023/02/02 00:06:23;;;;;;;27.15;2.92;;;4.70;99.90;;;;;;5110616;28;20096;-86
2023/02/02 00:08:49;;;;;;;19.83;2.75;;;4.60;99.90;;;;;;5109959;28;20040;-86
2023/02/02 00:11:18;;;;;;;25.27;3.00;;;4.60;99.90;;;;;;5094161;28;20557;-86
2023/02/02 00:13:45;;;;;;;20.95;3.40;;;4.60;99.90;;;;;;5110947;28;20040;-86
2023/02/02 00:16:27;;;;;;;18.48;2.50;;;4.60;99.90;;;;;;5110426;28;20393;-86
2023/02/02 00:18:59;;;;;;;18.77;2.60;;;4.60;99.90;;;;;;5127499;28;20058;-86
2023/02/02 00:21:27;;;;;;;22.50;3.08;;;4.60;99.90;;;;;;5127508;28;20404;-87
2023/02/02 00:23:54;;;;;;;22.65;3.20;;;4.60;99.90;;;;;;5127316;28;20040;-86
2023/02/02 00:26:21;;;;;;;19.48;2.67;;;4.50;99.90;;;;;;5110821;28;20039;-86
2023/02/02 00:28:47;;;;;;;26.38;3.75;;;4.60;99.90;;;;;;5127789;28;20036;-87
2023/02/02 00:31:14;;;;;;;14.05;2.75;;;4.60;99.90;;;;;;5093880;28;20040;-87
2023/02/02 00:33:48;;;;;;;18.17;2.45;;;4.50;99.90;;;;;;5110372;28;20100;-86
2023/02/02 00:36:16;;;;;;;19.17;2.65;;;4.50;99.90;;;;;;5095740;28;20098;-86
2023/02/02 00:38:44;;;;;;;20.52;3.03;;;4.40;99.90;;;;;;5097294;28;20056;-85
2023/02/02 00:41:11;;;;;;;17.33;3.28;;;4.40;99.90;;;;;;5106933;28;20459;-86
2023/02/02 00:43:37;;;;;;;19.50;2.70;;;4.40;99.90;;;;;;5094716;28;20097;-86
2023/02/02 00:46:08;;;;;;;18.88;2.58;;;4.50;99.90;;;;;;5110306;28;20036;-86
2023/02/02 00:48:34;;;;;;;17.40;2.83;;;4.50;99.90;;;;;;5109850;28;20460;-86
2023/02/02 00:51:01;;;;;;;21.60;2.72;;;4.50;99.90;;;;;;5093433;28;20130;-85
2023/02/02 00:53:28;;;;;;;24.95;4.10;;;4.50;99.90;;;;;;5093572;28;20047;-86
2023/02/02 00:55:54;;;;;;;19.77;3.03;;;4.40;99.90;;;;;;5109959;28;20135;-86
2023/02/02 00:58:21;;;;;;;23.33;3.55;;;4.40;99.90;;;;;;5093151;28;20085;-87
2023/02/02 01:00:48;;;;;;;22.00;3.17;;;4.40;99.90;;;;;;5127278;28;20043;-87
2023/02/02 01:03:15;;;;;;;26.67;3.47;;;4.30;99.90;;;;;;5127054;28;20085;-86
2023/02/02 01:05:41;;;;;;;21.42;3.22;;;4.30;99.90;;;;;;5126789;28;20115;-86
2023/02/02 01:08:08;;;;;;;17.58;2.83;;;4.30;99.90;;;;;;5093200;28;20040;-86
2023/02/02 01:10:35;;;;;;;15.07;2.88;;;4.30;99.90;;;;;;5109973;28;20068;-86
2023/02/02 01:13:02;;;;;;;24.45;2.88;;;4.20;99.90;;;;;;5127254;28;20155;-86
2023/02/02 01:15:29;;;;;;;18.65;3.40;;;4.20;99.90;;;;;;5109691;28;20044;-86
2023/02/02 01:17:56;;;;;;;21.60;3.00;;;4.20;99.90;;;;;;5109664;28;20040;-86
2023/02/02 01:20:24;;;;;;;21.67;3.17;;;4.10;99.90;;;;;;5109167;28;20048;-86
2023/02/02 01:22:51;;;;;;;28.95;3.95;;;4.10;99.90;;;;;;5109761;28;20040;-86
2023/02/02 01:25:18;;;;;;;23.95;3.70;;;4.10;99.90;;;;;;5109693;28;20032;-86
2023/02/02 01:27:45;;;;;;;23.35;2.90;;;4.10;99.90;;;;;;5126625;28;20059;-86
2023/02/02 01:30:17;;;;;;;34.05;4.57;;;4.40;99.90;;;;;;5094767;28;20076;-86
2023/02/02 01:32:44;;;;;;;28.30;3.53;;;4.10;99.90;;;;;;5093239;28;20082;-86
2023/02/02 01:35:11;;;;;;;18.55;3.22;;;4.10;99.90;;;;;;5093030;28;20039;-86
2023/02/02 01:37:38;;;;;;;18.05;3.28;;;4.00;99.90;;;;;;5109225;28;20044;-86
2023/02/02 01:40:06;;;;;;;23.17;3.45;;;4.00;99.90;;;;;;5093162;28;20040;-86
2023/02/02 01:42:33;;;;;;;28.33;4.00;;;4.10;99.90;;;;;;5092897;28;20028;-86
2023/02/02 01:45:12;;;;;;;22.67;3.08;;;4.10;99.90;;;;;;5093180;28;20150;-86
2023/02/02 01:47:44;;;;;;;21.55;3.03;;;4.00;99.90;;;;;;5126043;28;20048;-85
2023/02/02 01:50:13;;;;;;;23.35;3.47;;;4.00;99.90;;;;;;5109520;28;20074;-86
2023/02/02 01:52:43;;;;;;;23.58;3.17;;;4.10;99.90;;;;;;5126242;28;20122;-86
2023/02/02 01:55:13;;;;;;;24.95;3.20;;;4.10;99.90;;;;;;5126480;28;20051;-86
2023/02/02 01:57:48;;;;;;;20.63;3.25;;;4.40;99.90;;;;;;5109114;28;20052;-86
2023/02/02 02:00:17;;;;;;;27.45;3.10;;;4.10;99.90;;;;;;5109608;28;20039;-86
2023/02/02 02:02:47;;;;;;;24.98;3.63;;;4.10;99.90;;;;;;5109590;28;20061;-87
2023/02/02 02:05:23;;;;;;;25.38;3.10;;;4.10;99.90;;;;;;5109973;28;20044;-87
2023/02/02 02:07:52;;;;;;;32.55;3.70;;;4.20;99.90;;;;;;5109392;28;20036;-86
2023/02/02 02:10:19;;;;;;;26.13;4.40;;;4.10;99.90;;;;;;5109340;28;20040;-86
2023/02/02 02:12:49;;;;;;;21.42;3.22;;;4.10;99.90;;;;;;5109516;28;20161;-86
2023/02/02 02:18:19;;;;;;;29.85;3.47;;;4.10;99.90;;;;;;5126234;28;20048;-86
2023/02/02 02:27:17;;;;;;;25.98;4.18;;;4.10;99.90;;;;;;5143162;28;20036;-86
2023/02/02 02:29:47;;;;;;;28.45;3.78;;;4.10;99.90;;;;;;5125713;28;20042;-86
2023/02/02 02:32:37;;;;;;;22.35;3.28;;;4.10;99.90;;;;;;5127180;28;20126;-86
2023/02/02 02:35:27;;;;;;;26.58;3.70;;;4.10;99.90;;;;;;5112959;28;20040;-86
2023/02/02 02:38:03;;;;;;;24.45;3.35;;;4.10;99.90;;;;;;5112805;28;20093;-86
2023/02/02 02:40:41;;;;;;;25.40;3.03;;;4.10;99.90;;;;;;5112476;28;20040;-86
2023/02/02 02:43:20;;;;;;;24.33;3.80;;;4.10;99.90;;;;;;5112953;28;20040;-86
2023/02/02 02:45:47;;;;;;;31.08;4.00;;;4.10;99.90;;;;;;5112562;28;20040;-86
2023/02/02 02:48:14;;;;;;;20.63;3.05;;;4.10;99.90;;;;;;5112619;28;20463;-86
2023/02/02 02:50:41;;;;;;;22.70;3.58;;;4.00;99.90;;;;;;5112181;28;20048;-86
2023/02/02 02:53:14;;;;;;;30.73;4.07;;;4.10;99.90;;;;;;5095918;28;20040;-86
2023/02/02 02:55:53;;;;;;;26.10;3.90;;;4.30;99.90;;;;;;5112269;28;20039;-86
2023/02/02 02:58:44;;;;;;;21.55;3.38;;;4.00;99.90;;;;;;5129368;28;20079;-86
2023/02/02 03:01:26;;;;;;;23.63;3.17;;;4.10;99.90;;;;;;5092030;28;20086;-87
2023/02/02 03:04:15;;;;;;;32.33;3.67;;;4.20;99.90;;;;;;5092459;28;20047;-87
2023/02/02 03:06:50;;;;;;;25.67;3.25;;;4.20;99.90;;;;;;5091614;28;20037;-86
2023/02/02 03:09:34;;;;;;;26.60;3.10;;;4.30;99.90;;;;;;5095851;28;20035;-86
2023/02/02 03:12:02;;;;;;;26.77;3.58;;;4.20;99.90;;;;;;5112018;28;20075;-86
2023/02/02 03:14:33;;;;;;;23.13;3.53;;;4.30;99.90;;;;;;5095659;28;20036;-86
2023/02/02 03:16:59;;;;;;;24.92;2.90;;;4.20;99.90;;;;;;5112621;28;20040;-86
2023/02/02 03:19:26;;;;;;;24.75;4.03;;;4.30;99.90;;;;;;5095015;28;20602;-85
2023/02/02 03:21:53;;;;;;;21.75;3.08;;;4.30;99.90;;;;;;5111810;28;20235;-86
2023/02/02 03:24:20;;;;;;;28.25;3.90;;;4.50;99.90;;;;;;5095350;28;20082;-87
2023/02/02 03:26:46;;;;;;;22.83;3.45;;;4.50;99.90;;;;;;5111798;28;20961;-87
2023/02/02 03:29:13;;;;;;;18.92;2.90;;;4.30;99.90;;;;;;5095406;28;20036;-87
2023/02/02 03:31:40;;;;;;;23.23;2.80;;;4.40;99.90;;;;;;5094871;28;20156;-86
2023/02/02 03:34:07;;;;;;;24.50;2.78;;;4.40;99.90;;;;;;5111945;28;20173;-87
2023/02/02 03:36:34;;;;;;;17.95;2.65;;;4.50;99.90;;;;;;5111556;28;20036;-87
2023/02/02 03:39:00;;;;;;;23.38;3.28;;;4.50;99.90;;;;;;5095142;28;20047;-86
2023/02/02 03:41:27;;;;;;;23.13;3.60;;;4.50;99.90;;;;;;5111239;28;20145;-87
2023/02/02 03:43:54;;;;;;;22.00;3.20;;;4.50;99.90;;;;;;5111401;28;20047;-87
2023/02/02 03:46:21;;;;;;;19.83;2.53;;;4.70;99.90;;;;;;5094875;28;20040;-87
2023/02/02 03:48:47;;;;;;;22.95;3.75;;;4.50;99.90;;;;;;5094395;28;20119;-88
2023/02/02 03:51:14;;;;;;;24.33;3.78;;;4.50;99.90;;;;;;5111374;28;20044;-87
2023/02/02 03:53:43;;;;;;;21.23;3.08;;;4.60;99.90;;;;;;5128307;28;20113;-87
2023/02/02 03:56:10;;;;;;;24.55;3.10;;;4.60;99.90;;;;;;5111703;28;20113;-86
2023/02/02 03:58:36;;;;;;;25.10;3.97;;;4.60;99.90;;;;;;5127993;28;20044;-87
2023/02/02 04:01:10;;;;;;;27.35;3.60;;;4.60;99.90;;;;;;5111519;28;20442;-87
2023/02/02 04:03:37;;;;;;;21.25;2.53;;;4.60;99.90;;;;;;5128061;28;20047;-87
2023/02/02 04:06:04;;;;;;;21.10;3.58;;;4.70;99.90;;;;;;5091775;28;20032;-87
2023/02/02 04:08:30;;;;;;;21.95;3.17;;;4.70;99.90;;;;;;5115475;28;20041;-86
2023/02/02 04:10:58;;;;;;;19.13;3.70;;;4.70;99.90;;;;;;5072644;28;20040;-87
2023/02/02 04:13:25;;;;;;;26.75;3.42;;;4.70;99.90;;;;;;5103243;28;20042;-86
2023/02/02 04:16:01;;;;;;;18.65;2.92;;;4.70;99.90;;;;;;5124144;28;20036;-87
2023/02/02 04:18:28;;;;;;;19.45;3.13;;;4.70;99.90;;;;;;5118216;28;20052;-87
2023/02/02 04:20:59;;;;;;;23.13;3.03;;;4.80;99.90;;;;;;5108485;28;20044;-88
2023/02/02 04:23:27;;;;;;;26.73;3.45;;;4.80;99.90;;;;;;5110663;28;20035;-88
2023/02/02 04:25:54;;;;;;;28.83;3.25;;;4.90;99.90;;;;;;5110253;28;20036;-87
2023/02/02 04:28:22;;;;;;;26.15;3.67;;;4.90;99.90;;;;;;5127604;28;20677;-87
2023/02/02 04:30:50;;;;;;;26.95;3.13;;;5.00;99.90;;;;;;5093991;28;20403;-86
2023/02/02 04:33:17;;;;;;;24.33;3.05;;;5.00;99.90;;;;;;5111354;28;20035;-87
2023/02/02 04:35:44;;;;;;;15.95;2.30;;;5.00;99.90;;;;;;5109970;28;20131;-87
2023/02/02 04:38:11;;;;;;;13.48;2.33;;;5.10;99.90;;;;;;5110328;28;20119;-88
2023/02/02 04:40:42;;;;;;;16.58;3.10;;;5.10;99.90;;;;;;5109873;28;20526;-85
2023/02/02 04:43:08;;;;;;;18.95;2.53;;;5.20;99.90;;;;;;5110593;28;20051;-86
2023/02/02 04:45:35;;;;;;;15.32;2.22;;;5.20;99.90;;;;;;5093877;28;20465;-87
2023/02/02 04:48:03;;;;;;;11.95;2.05;;;5.20;99.90;;;;;;5110114;28;20849;-87
2023/02/02 04:50:30;;;;;;;16.75;1.90;;;5.20;99.90;;;;;;5110408;28;20040;-87
2023/02/02 04:52:57;;;;;;;9.70;1.85;;;5.20;99.90;;;;;;5109756;28;20123;-86
2023/02/02 04:55:24;;;;;;;9.43;1.60;;;5.20;99.90;;;;;;5126852;28;20051;-87
2023/02/02 04:57:50;;;;;;;9.10;1.63;;;5.20;99.90;;;;;;5110049;28;20139;-87
2023/02/02 05:00:18;;;;;;;7.85;1.40;;;5.20;99.90;;;;;;5093342;28;20048;-87
2023/02/02 05:02:44;;;;;;;6.82;1.35;;;5.10;99.90;;;;;;5109752;28;20047;-87
2023/02/02 05:05:14;;;;;;;6.38;1.13;;;5.10;99.90;;;;;;5110818;28;20044;-87
2023/02/02 05:07:41;;;;;;;7.13;1.30;;;5.10;99.90;;;;;;5093106;28;20044;-87
2023/02/02 05:10:08;;;;;;;4.35;0.90;;;5.00;99.90;;;;;;5109939;28;20126;-87
2023/02/02 05:12:35;;;;;;;7.53;0.88;;;5.00;99.90;;;;;;5093142;28;20519;-87
2023/02/02 05:15:04;;;;;;;5.32;1.02;;;5.00;99.90;;;;;;5126469;28;20040;-87
2023/02/02 05:17:31;;;;;;;6.32;1.17;;;5.00;99.90;;;;;;5110039;28;20051;-87
2023/02/02 05:19:58;;;;;;;6.35;1.13;;;5.00;99.90;;;;;;5109529;28;20528;-86
2023/02/02 05:22:24;;;;;;;7.65;1.05;;;5.00;99.90;;;;;;5109719;28;20036;-87
2023/02/02 05:24:51;;;;;;;6.63;0.98;;;5.00;99.90;;;;;;5109647;28;20047;-86
2023/02/02 05:27:18;;;;;;;7.13;1.05;;;5.00;99.90;;;;;;5093142;28;20040;-87
2023/02/02 05:29:47;;;;;;;7.68;1.15;;;4.90;99.90;;;;;;5109824;28;20049;-86
2023/02/02 05:32:13;;;;;;;9.65;1.00;;;4.90;99.90;;;;;;5109729;28;20028;-86
2023/02/02 05:34:40;;;;;;;6.32;1.25;;;4.90;99.90;;;;;;5126381;28;20531;-87
2023/02/02 05:37:07;;;;;;;9.15;1.52;;;4.80;99.90;;;;;;5109837;28;20480;-86
2023/02/02 05:39:33;;;;;;;9.43;1.23;;;4.80;99.90;;;;;;5109489;28;20032;-87
2023/02/02 05:42:00;;;;;;;4.00;0.85;;;4.80;99.90;;;;;;5109617;28;20063;-87
2023/02/02 05:44:27;;;;;;;5.82;1.35;;;4.80;99.90;;;;;;5109552;28;20040;-87
2023/02/02 05:46:54;;;;;;;9.40;1.15;;;4.70;99.90;;;;;;5092865;28;20040;-87
2023/02/02 05:49:20;;;;;;;8.98;1.13;;;4.70;99.90;;;;;;5092638;28;20044;-87
2023/02/02 05:51:52;;;;;;;10.18;1.30;;;4.70;99.90;;;;;;5109447;28;20040;-87
2023/02/02 05:54:19;;;;;;;6.97;1.02;;;4.60;99.90;;;;;;5126210;28;20044;-86
2023/02/02 05:56:47;;;;;;;7.85;1.35;;;4.60;99.90;;;;;;5109521;28;20040;-87
2023/02/02 05:59:14;;;;;;;3.22;0.82;;;4.60;99.90;;;;;;5109302;28;20044;-87
2023/02/02 06:01:40;;;;;;;4.90;1.15;;;4.60;99.90;;;;;;5126388;28;20064;-87
2023/02/02 06:04:07;;;;;;;7.22;0.98;;;4.70;99.90;;;;;;5109646;28;20058;-87
2023/02/02 06:06:34;;;;;;;5.95;1.20;;;4.70;99.90;;;;;;5093693;28;20093;-87
2023/02/02 06:09:01;;;;;;;8.05;1.17;;;4.60;99.90;;;;;;5113749;28;20043;-87
2023/02/02 06:11:28;;;;;;;10.40;1.20;;;4.50;99.90;;;;;;5113701;28;20040;-87
2023/02/02 06:13:55;;;;;;;8.57;1.38;;;4.50;99.90;;;;;;5130457;28;20043;-87
2023/02/02 06:16:22;;;;;;;4.40;1.35;;;4.50;99.90;;;;;;5098387;28;20047;-87
2023/02/02 06:18:50;;;;;;;7.25;1.42;;;4.50;99.90;;;;;;5130604;28;20063;-84
2023/02/02 06:21:18;;;;;;;7.20;1.05;;;4.50;99.90;;;;;;5130116;28;20099;-87
2023/02/02 06:23:45;;;;;;;3.30;0.82;;;4.50;99.90;;;;;;5113656;28;20075;-87
2023/02/02 06:26:13;;;;;;;6.60;1.10;;;4.40;99.90;;;;;;5113054;28;20043;-87
2023/02/02 06:28:40;;;;;;;6.65;1.20;;;4.40;99.90;;;;;;5130139;28;20085;-86
2023/02/02 06:31:09;;;;;;;5.55;1.00;;;4.40;99.90;;;;;;5113095;28;20569;-87
2023/02/02 06:33:36;;;;;;;5.65;1.02;;;4.40;99.90;;;;;;5113219;28;20040;-87
2023/02/02 06:36:05;;;;;;;5.82;1.30;;;4.30;99.90;;;;;;5130097;28;20044;-87
2023/02/02 06:38:32;;;;;;;8.43;1.02;;;4.30;99.90;;;;;;5129839;28;20510;-88
2023/02/02 06:41:00;;;;;;;6.75;1.00;;;4.30;99.90;;;;;;5129709;28;20492;-87
2023/02/02 06:43:27;;;;;;;6.90;1.35;;;4.30;99.90;;;;;;5113026;28;20504;-87
2023/02/02 06:45:55;;;;;;;7.18;1.25;;;4.20;99.90;;;;;;5112754;28;20062;-87
2023/02/02 06:48:22;;;;;;;5.47;1.13;;;4.20;99.90;;;;;;5112959;28;20123;-87
2023/02/02 06:50:49;;;;;;;7.00;1.10;;;4.20;99.90;;;;;;5113302;28;20127;-86
2023/02/02 06:53:21;;;;;;;7.93;1.23;;;4.20;99.90;;;;;;5129535;28;20048;-87
2023/02/02 06:56:02;;;;;;;5.45;1.02;;;4.10;99.90;;;;;;5092692;28;20032;-88
2023/02/02 06:58:30;;;;;;;3.33;0.90;;;4.10;99.90;;;;;;5115447;28;20065;-87
2023/02/02 07:01:03;;;;;;;6.07;1.15;;;4.20;99.90;;;;;;5108803;28;20514;-86
2023/02/02 07:03:29;;;;;;;5.00;1.10;;;4.40;99.90;;;;;;5109107;28;20032;-87
2023/02/02 07:05:56;;;;;;;4.78;1.23;;;4.20;99.90;;;;;;5101181;28;20105;-87
2023/02/02 07:08:23;;;;;;;6.75;1.00;;;4.20;99.90;;;;;;5126576;28;20039;-87
2023/02/02 07:10:50;;;;;;;2.22;0.75;;;4.20;99.90;;;;;;5083692;28;20390;-87
2023/02/02 07:13:16;;;;;;;8.23;1.15;;;4.10;99.90;;;;;;5100077;28;20399;-87
2023/02/02 07:15:43;;;;;;;4.18;0.77;;;4.20;99.90;;;;;;5095982;28;20044;-87
2023/02/02 07:18:10;;;;;;;2.83;0.80;;;4.20;99.90;;;;;;5088279;28;20104;-87
2023/02/02 07:20:37;;;;;;;6.97;1.10;;;4.50;99.90;;;;;;5096464;28;20048;-87
2023/02/02 07:23:04;;;;;;;5.88;1.15;;;4.20;99.90;;;;;;5095078;28;20047;-87
2023/02/02 07:25:30;;;;;;;5.25;1.48;;;4.20;99.90;;;;;;5111557;28;20109;-87
2023/02/02 07:27:57;;;;;;;2.78;0.82;;;4.20;99.90;;;;;;5093669;28;20525;-88
2023/02/02 07:30:24;;;;;;;3.72;0.98;;;4.20;99.90;;;;;;5128680;28;20059;-87
2023/02/02 07:32:51;;;;;;;6.68;1.00;;;4.20;99.90;;;;;;5112008;28;20048;-88
2023/02/02 07:35:17;;;;;;;1.50;0.70;;;4.20;99.90;;;;;;5095599;28;20405;-88
2023/02/02 07:37:50;;;;;;;5.93;0.60;;;4.20;99.90;;;;;;5112459;28;20036;-88
2023/02/02 07:40:17;;;;;;;4.15;0.47;;;4.20;99.90;;;;;;5111709;28;20040;-88
2023/02/02 07:42:47;;;;;;;5.20;0.90;;;4.20;99.90;;;;;;5111895;28;20039;-88
2023/02/02 07:45:15;;;;;;;4.32;1.17;;;4.20;99.90;;;;;;5111641;28;20032;-88
2023/02/02 07:47:41;;;;;;;6.53;0.70;;;4.30;99.90;;;;;;5128169;28;20123;-88
2023/02/02 07:50:09;;;;;;;1.85;0.50;;;4.50;99.90;;;;;;5095023;28;20071;-88
2023/02/02 07:52:35;;;;;;;4.75;0.98;;;4.30;99.90;;;;;;5095202;28;20040;-88
2023/02/02 07:55:02;;;;;;;7.05;1.00;;;4.30;99.90;;;;;;5094892;28;20074;-85
2023/02/02 07:57:29;;;;;;;4.32;1.17;;;4.40;99.90;;;;;;5095558;28;20087;-88
2023/02/02 07:59:56;;;;;;;9.07;0.85;;;4.40;99.90;;;;;;5072314;28;20063;-88
2023/02/02 08:02:23;;;;;;;4.40;0.93;;;4.40;99.90;;;;;;5096444;28;20106;-88
2023/02/02 08:04:49;;;;;;;3.67;0.82;;;4.50;99.90;;;;;;5091355;28;20036;-89
2023/02/02 08:07:17;;;;;;;5.10;0.73;;;4.50;99.90;;;;;;5102543;28;20036;-88
2023/02/02 08:09:47;;;;;;;2.45;1.00;;;4.50;99.90;;;;;;5111082;28;20047;-87
2023/02/02 08:12:14;;;;;;;3.08;0.93;;;4.60;99.90;;;;;;5111145;28;20078;-87
2023/02/02 08:14:41;;;;;;;2.58;0.85;;;4.60;99.90;;;;;;5127233;28;20512;-88
2023/02/02 08:17:08;;;;;;;6.78;0.98;;;4.60;99.90;;;;;;5092608;28;20070;-88
2023/02/02 08:19:34;;;;;;;3.38;0.80;;;4.70;99.90;;;;;;5106251;28;20123;-87
2023/02/02 08:22:01;;;;;;;8.10;1.20;;;4.70;99.90;;;;;;5108018;28;20059;-87
2023/02/02 08:24:28;;;;;;;2.50;0.82;;;4.70;99.90;;;;;;5093853;28;20134;-88
2023/02/02 08:26:54;;;;;;;6.93;1.05;;;4.70;99.90;;;;;;5092533;28;20153;-87
2023/02/02 08:29:21;;;;;;;4.13;1.13;;;4.80;99.90;;;;;;5119504;28;20048;-86
2023/02/02 08:31:48;;;;;;;2.45;1.08;;;5.00;99.90;;;;;;5098720;28;20041;-87
2023/02/02 08:34:15;;;;;;;1.00;0.70;;;4.80;99.90;;;;;;5119340;28;20609;-88
2023/02/02 08:36:41;;;;;;;7.55;1.20;;;4.90;99.90;;;;;;5139656;28;20044;-88
2023/02/02 08:39:11;;;;;;;4.65;1.13;;;5.00;99.90;;;;;;5118376;28;20036;-87
2023/02/02 08:41:38;;;;;;;7.40;1.20;;;5.00;99.90;;;;;;5101085;28;20047;-87
2023/02/02 08:44:06;;;;;;;3.33;1.00;;;5.00;99.90;;;;;;5118910;28;20095;-88
2023/02/02 08:46:33;;;;;;;3.47;0.90;;;5.00;99.90;;;;;;5107053;28;20047;-88
2023/02/02 08:49:00;;;;;;;4.00;0.90;;;5.00;99.90;;;;;;5106984;28;20047;-87
2023/02/02 08:51:27;;;;;;;5.82;1.30;;;5.10;99.90;;;;;;5106731;28;20586;-87
2023/02/02 08:53:54;;;;;;;6.18;0.93;;;5.10;99.90;;;;;;5097367;28;20499;-86
2023/02/02 08:56:22;;;;;;;8.13;1.20;;;5.10;99.90;;;;;;5092021;28;20076;-88
2023/02/02 08:58:51;;;;;;;3.95;0.85;;;5.20;99.90;;;;;;5094224;28;20041;-87
2023/02/02 09:01:23;;;;;;;4.85;1.15;;;5.20;99.90;;;;;;5089613;28;20041;-86
2023/02/02 09:04:05;;;;;;;3.20;1.10;;;5.20;99.90;;;;;;5109381;28;20449;-87
2023/02/02 09:06:37;;;;;;;7.20;1.02;;;5.30;99.90;;;;;;5143605;28;20079;-87
2023/02/02 09:09:06;;;;;;;1.70;0.77;;;5.30;99.90;;;;;;5109868;28;20453;-86
2023/02/02 09:11:33;;;;;;;5.72;1.05;;;5.30;99.90;;;;;;5143437;28;20047;-87
2023/02/02 09:14:01;;;;;;;4.20;1.17;;;5.30;99.90;;;;;;5126770;28;20070;-86
2023/02/02 09:16:29;;;;;;;5.85;1.00;;;5.40;99.90;;;;;;5106025;28;20119;-87
2023/02/02 09:18:55;;;;;;;3.65;0.90;;;5.40;99.90;;;;;;5089948;28;20056;-87
2023/02/02 09:21:22;;;;;;;5.13;0.90;;;5.40;99.90;;;;;;5109213;28;20051;-87
2023/02/02 09:23:52;;;;;;;1.90;0.60;;;5.50;99.90;;;;;;5110110;28;20377;-87
2023/02/02 09:26:22;;;;;;;5.53;0.90;;;5.50;99.90;;;;;;5126220;28;20040;-87
2023/02/02 09:28:54;;;;;;;2.33;0.90;;;5.60;99.90;;;;;;5110225;28;20036;-87
2023/02/02 09:31:22;;;;;;;3.47;1.00;;;5.50;99.90;;;;;;5126164;28;20048;-87
2023/02/02 09:33:48;;;;;;;5.07;1.05;;;5.60;99.90;;;;;;5126319;28;20572;-86
2023/02/02 09:36:19;;;;;;;6.88;1.02;;;5.60;99.90;;;;;;5108972;28;20047;-87
2023/02/02 09:38:47;;;;;;;2.78;0.88;;;5.70;99.90;;;;;;5109916;28;20046;-87
2023/02/02 09:41:35;;;;;;;5.82;0.73;;;5.70;99.90;;;;;;5123181;28;20392;-87
2023/02/02 09:44:33;;;;;;;4.63;0.90;;;5.80;99.90;;;;;;5106231;28;20528;-87
2023/02/02 09:47:10;;;;;;;5.18;0.95;;;5.80;99.90;;;;;;5106165;28;20037;-87
2023/02/02 09:50:06;;;;;;;3.13;0.85;;;5.80;99.90;;;;;;5105756;28;20047;-86
2023/02/02 09:52:39;;;;;;;9.30;1.10;;;5.80;99.90;;;;;;5105705;28;20041;-87
2023/02/02 09:55:14;;;;;;;5.70;1.10;;;5.90;99.90;;;;;;5105728;28;20041;-87
2023/02/02 09:58:19;;;;;;;4.90;1.00;;;5.90;99.90;;;;;;5105695;28;20051;-86
2023/02/02 10:01:16;;;;;;;5.32;1.17;;;5.90;99.90;;;;;;5087922;28;20063;-86
2023/02/02 10:03:49;;;;;;;3.50;0.93;;;6.00;99.90;;;;;;5105287;28;20047;-87
2023/02/02 10:06:35;;;;;;;3.70;0.93;;;6.00;99.90;;;;;;5105767;28;20067;-87
2023/02/02 10:09:07;;;;;;;2.60;0.80;;;6.00;99.90;;;;;;5105667;28;20041;-87
2023/02/02 10:11:49;;;;;;;5.15;0.90;;;6.10;99.90;;;;;;5109058;28;20484;-87
2023/02/02 10:14:25;;;;;;;3.40;1.10;;;6.10;99.90;;;;;;5117789;28;20043;-87
2023/02/02 10:16:55;;;;;;;2.38;0.80;;;6.10;99.90;;;;;;5106232;28;20121;-87
2023/02/02 10:19:27;;;;;;;6.22;1.30;;;6.20;99.90;;;;;;5109231;28;20052;-89
2023/02/02 10:22:02;;;;;;;4.63;1.00;;;6.20;99.90;;;;;;5109038;28;20492;-87
2023/02/02 10:24:31;;;;;;;6.10;1.10;;;6.30;99.90;;;;;;5142613;28;20416;-85
2023/02/02 10:27:04;;;;;;;3.05;0.85;;;6.30;99.90;;;;;;5118325;28;20078;-86
2023/02/02 10:29:53;;;;;;;7.63;1.23;;;6.40;99.90;;;;;;5105275;28;20066;-87
2023/02/02 10:32:40;;;;;;;7.18;1.40;;;6.40;99.90;;;;;;5089077;28;20037;-84
2023/02/02 10:35:31;;;;;;;3.13;0.90;;;6.40;99.90;;;;;;5106036;28;20043;-86
2023/02/02 10:38:16;;;;;;;1.90;0.90;;;6.40;99.90;;;;;;5108317;28;20446;-86
2023/02/02 10:40:49;;;;;;;6.30;0.80;;;6.50;99.90;;;;;;5108111;28;20084;-86
2023/02/02 10:43:46;;;;;;;2.22;0.73;;;6.60;99.90;;;;;;5098098;28;20043;-86
2023/02/02 10:46:29;;;;;;;2.28;0.80;;;6.50;99.90;;;;;;5107399;28;20404;-85
2023/02/02 10:49:22;;;;;;;1.75;0.60;;;6.50;99.90;;;;;;5099793;28;20621;-86
2023/02/02 10:51:56;;;;;;;1.92;0.70;;;6.50;99.90;;;;;;5121926;28;20408;-86
2023/02/02 10:54:31;;;;;;;3.78;0.68;;;6.50;99.90;;;;;;5112524;28;20044;-86
2023/02/02 10:57:02;;;;;;;2.95;0.52;;;7.30;99.90;;;;;;5103644;28;20044;-86
2023/02/02 10:59:34;;;;;;;2.33;0.80;;;6.60;99.90;;;;;;5111201;28;20389;-86
2023/02/02 11:02:01;;;;;;;3.47;0.70;;;6.50;99.90;;;;;;5124373;28;20048;-86
2023/02/02 11:07:19;;;;;;;3.22;0.90;;;6.50;99.90;;;;;;5108936;28;20694;-86
2023/02/02 11:09:46;;;;;;;3.95;0.95;;;6.50;99.90;;;;;;5095578;28;20059;-86
2023/02/02 11:12:34;;;;;;;8.40;0.90;;;6.50;99.90;;;;;;5108895;28;20048;-86
2023/02/02 11:15:21;;;;;;;2.20;0.80;;;6.50;99.90;;;;;;5101030;28;20039;-85
2023/02/02 11:17:47;;;;;;;2.10;0.70;;;6.50;99.90;;;;;;5106795;28;20040;-86
2023/02/02 11:20:22;;;;;;;4.40;0.90;;;6.50;99.90;;;;;;5111026;28;20114;-85
2023/02/02 11:23:00;;;;;;;2.03;0.70;;;6.40;99.90;;;;;;5110970;28;20047;-86
2023/02/02 11:25:33;;;;;;;1.65;0.80;;;6.40;99.90;;;;;;5111535;28;20043;-86
2023/02/02 11:28:10;;;;;;;7.10;1.42;;;6.40;99.90;;;;;;5111147;28;20098;-85
2023/02/02 11:30:38;;;;;;;4.93;0.93;;;6.40;99.90;;;;;;5111762;28;20126;-86
2023/02/02 11:33:40;;;;;;;3.42;0.70;;;6.40;99.90;;;;;;5086110;28;20493;-86
2023/02/02 11:36:20;;;;;;;3.03;0.80;;;6.40;99.90;;;;;;5088875;28;20040;-86
2023/02/02 11:38:47;;;;;;;6.82;3.08;;;6.40;99.90;;;;;;5091643;28;20446;-85
2023/02/02 11:41:15;;;;;;;5.05;2.88;;;6.40;99.90;;;;;;5109822;28;20047;-85
2023/02/02 11:43:53;;;;;;;3.55;1.30;;;6.40;99.90;;;;;;5099330;28;20066;-85
2023/02/02 11:46:31;;;;;;;5.22;2.28;;;6.40;99.90;;;;;;5085411;28;20507;-85
2023/02/02 11:49:07;;;;;;;6.63;1.00;;;6.40;99.90;;;;;;5094378;28;20024;-85
2023/02/02 11:51:33;;;;;;;;;;;6.30;99.90;;;;;;5107113;28;20032;-86
2023/02/02 11:54:16;;;;;;;6.47;1.25;;;6.30;99.90;;;;;;5098249;28;19923;-86
2023/02/02 11:56:48;;;;;;;3.17;1.10;;;6.30;99.90;;;;;;5101663;28;20408;-85
2023/02/02 11:59:29;;;;;;;5.90;1.13;;;6.30;99.90;;;;;;5117131;28;20039;-86
2023/02/02 12:02:20;;;;;;;2.13;0.90;;;6.20;99.90;;;;;;5127833;28;20051;-85
2023/02/02 12:04:49;;;;;;;3.55;0.85;;;6.20;99.90;;;;;;5121732;28;20449;-84
2023/02/02 12:07:37;;;;;;;3.85;1.40;;;6.20;99.90;;;;;;5110143;28;20043;-85
2023/02/02 12:10:17;;;;;;;9.35;1.48;;;6.20;99.90;;;;;;5093846;28;20044;-85
2023/02/02 12:12:50;;;;;;;6.63;1.77;;;6.10;99.90;;;;;;5127052;28;20036;-84
2023/02/02 12:15:30;;;;;;;7.80;0.98;;;6.10;99.90;;;;;;5117325;28;20037;-85
2023/02/02 12:18:29;;;;;;;2.03;0.98;;;6.10;99.90;;;;;;5096956;28;20040;-85
2023/02/02 12:21:06;;;;;;;8.10;1.60;;;6.10;99.90;;;;;;5124455;28;20051;-84
2023/02/02 12:23:46;;;;;;;5.70;1.10;;;6.10;99.90;;;;;;5118397;28;20043;-84
2023/02/02 12:26:25;;;;;;;5.20;1.33;;;6.10;99.90;;;;;;5103978;28;20048;-84
2023/02/02 12:29:14;;;;;;;3.38;1.27;;;6.10;99.90;;;;;;5110299;28;20066;-85
2023/02/02 12:31:47;;;;;;;9.85;1.30;;;6.10;99.90;;;;;;5106028;28;20040;-85
2023/02/02 12:34:23;;;;;;;3.65;1.13;;;6.10;99.90;;;;;;5096664;28;20074;-85
2023/02/02 12:37:07;;;;;;;5.88;1.52;;;6.10;99.90;;;;;;5105150;28;20036;-87
2023/02/02 12:40:12;;;;;;;3.45;1.60;;;6.20;99.90;;;;;;5106163;28;20401;-87
2023/02/02 12:42:59;;;;;;;5.85;1.40;;;6.20;99.90;;;;;;5094598;28;20052;-83
2023/02/02 12:45:36;;;;;;;4.38;1.40;;;6.20;99.90;;;;;;5106202;28;20054;-84
2023/02/02 12:48:18;;;;;;;5.00;1.40;;;6.20;99.90;;;;;;5101798;28;20818;-84
2023/02/02 12:51:18;;;;;;;5.30;1.10;;;6.20;99.90;;;;;;5125953;28;20046;-84
2023/02/02 12:54:22;;;;;;;5.18;1.20;;;6.30;99.90;;;;;;5125933;28;20108;-84
2023/02/02 12:57:27;;;;;;;3.40;1.40;;;6.30;99.90;;;;;;5109098;28;20117;-84
2023/02/02 13:00:22;;;;;;;7.07;1.55;;;6.30;99.90;;;;;;5088039;28;20139;-84
2023/02/02 13:03:26;;;;;;;5.82;1.50;;;6.30;99.90;;;;;;5109143;28;20131;-84
2023/02/02 13:06:05;;;;;;;4.05;1.10;;;6.40;99.90;;;;;;5108458;28;20040;-84
2023/02/02 13:08:54;;;;;;;6.25;1.80;;;6.40;99.90;;;;;;5126607;28;20047;-85
2023/02/02 13:11:48;;;;;;;2.08;0.75;;;6.40;99.90;;;;;;5126278;28;20048;-84
2023/02/02 13:14:28;;;;;;;6.00;1.40;;;6.40;99.90;;;;;;5109074;28;20089;-84
2023/02/02 13:17:27;;;;;;;3.53;1.02;;;6.40;99.90;;;;;;5108310;28;20101;-83
2023/02/02 13:20:02;;;;;;;3.50;0.80;;;6.40;99.90;;;;;;5100466;28;20477;-83
2023/02/02 13:22:41;;;;;;;2.63;0.70;;;6.40;99.90;;;;;;5117005;28;20501;-83
2023/02/02 13:25:21;;;;;;;1.70;0.75;;;6.40;99.90;;;;;;5129495;28;20043;-84
2023/02/02 13:27:48;;;;;;;5.57;0.88;;;6.40;99.90;;;;;;5105020;28;20041;-83
2023/02/02 13:30:37;;;;;;;4.20;0.85;;;6.40;99.90;;;;;;5106140;28;20075;-83